createdAt,value
2023-07-25T00:02:58.348Z,99285.09
2023-07-25T00:06:05.145Z,99297.06
2023-07-25T00:09:09.859Z,99255.94
2023-07-25T00:12:19.127Z,99223.87
2023-07-25T00:15:25.123Z,99182.56
2023-07-25T00:18:27.174Z,99168.16
2023-07-25T00:21:39.315Z,99160.47
2023-07-25T00:24:42.491Z,99144.81
2023-07-25T00:27:48.646Z,99160.47
2023-07-25T00:30:50.813Z,99182.75
2023-07-25T00:33:53.402Z,99174.16
2023-07-25T00:36:55.818Z,99177.41
2023-07-25T00:40:01.016Z,99185.72
2023-07-25T00:43:03.479Z,99203.09
2023-07-25T00:46:07.779Z,99228.03
2023-07-25T00:49:15.328Z,99258.31
2023-07-25T00:52:22.279Z,99268.87
2023-07-25T00:55:32.570Z,99282.19
2023-07-25T00:58:36.794Z,99286.28
2023-07-25T01:01:42.569Z,99305.41
2023-07-25T01:04:46.936Z,99327.53
2023-07-25T01:07:57.791Z,99357.97
2023-07-25T01:11:01.942Z,99372.44
2023-07-25T01:14:07.282Z,99375.13
2023-07-25T01:17:14.812Z,99368.72
2023-07-25T01:20:19.194Z,99373.97
2023-07-25T01:23:23.015Z,99377.19
2023-07-25T01:26:24.997Z,99379.88
2023-07-25T01:29:27.080Z,99373.78
2023-07-25T01:32:29.098Z,99360.63
2023-07-25T01:35:31.049Z,99346.09
2023-07-25T01:38:33.324Z,99324.03
2023-07-25T01:41:35.714Z,99325.06
2023-07-25T01:44:37.686Z,99311.81
2023-07-25T01:47:39.749Z,99302.00
2023-07-25T01:50:41.831Z,99249.78
2023-07-25T01:53:45.657Z,99220.97
2023-07-25T01:56:50.386Z,99189.78
2023-07-25T01:59:53.060Z,99177.56
2023-07-25T02:02:55.109Z,99153.13
2023-07-25T02:05:57.204Z,99134.72
2023-07-25T02:08:59.291Z,99136.34
2023-07-25T02:12:01.954Z,99160.81
2023-07-25T02:15:04.393Z,99141.88
2023-07-25T02:18:06.494Z,99129.84
2023-07-25T02:21:08.480Z,99163.91
2023-07-25T02:24:10.388Z,99215.31
2023-07-25T02:27:12.526Z,99212.25
2023-07-25T02:30:14.485Z,99221.44
2023-07-25T02:33:16.474Z,99201.41
2023-07-25T02:36:18.909Z,99125.75
2023-07-25T02:39:20.889Z,98989.56
2023-07-25T02:42:22.814Z,99060.91
2023-07-25T02:45:25.703Z,99040.75
2023-07-25T02:48:27.809Z,99009.75
2023-07-25T02:51:30.111Z,99013.62
2023-07-25T02:54:32.729Z,99014.88
2023-07-25T02:57:34.675Z,99016.28
2023-07-25T03:00:36.910Z,99037.66
2023-07-25T03:03:41.365Z,99058.88
2023-07-25T03:06:43.496Z,99071.72
2023-07-25T03:09:46.062Z,99089.28
2023-07-25T03:12:48.613Z,99101.31
2023-07-25T03:15:51.114Z,99101.09
2023-07-25T03:18:53.273Z,99107.41
2023-07-25T03:21:56.480Z,99103.13
2023-07-25T03:24:58.648Z,99100.47
2023-07-25T03:28:00.652Z,99096.19
2023-07-25T03:31:06.517Z,99107.81
2023-07-25T03:34:08.788Z,99125.16
2023-07-25T03:37:10.924Z,99139.44
2023-07-25T03:40:17.474Z,99154.75
2023-07-25T03:43:24.427Z,99145.97
2023-07-25T03:46:36.261Z,99134.72
2023-07-25T03:49:42.121Z,99122.50
2023-07-25T03:52:44.324Z,99111.69
2023-07-25T03:55:53.122Z,99108.81
2023-07-25T03:58:55.264Z,99114.12
2023-07-25T04:02:04.666Z,99110.44
2023-07-25T04:05:09.267Z,99104.31
2023-07-25T04:08:19.622Z,99119.84
2023-07-25T04:11:39.041Z,99140.03
2023-07-25T04:14:44.505Z,99134.91
2023-07-25T04:17:53.455Z,99125.13
2023-07-25T04:21:01.160Z,99120.00
2023-07-25T04:24:03.560Z,99117.53
2023-07-25T04:27:14.103Z,99109.97
2023-07-25T04:30:20.485Z,99106.25
2023-07-25T04:33:35.555Z,99121.53
2023-07-25T04:58:08.570Z,99142.34
2023-07-25T05:01:17.055Z,99131.94
2023-07-25T05:04:56.355Z,99114.81
2023-07-25T05:08:34.350Z,99122.00
2023-07-25T05:15:00.454Z,99106.69
2023-07-25T05:18:17.787Z,99084.72
2023-07-25T05:21:23.097Z,99104.22
2023-07-25T05:28:18.579Z,99097.31
2023-07-25T05:31:31.139Z,99082.31
2023-07-25T05:34:43.129Z,99091.97
2023-07-25T05:37:53.131Z,99077.25
2023-07-25T05:41:14.223Z,99080.16
2023-07-25T05:44:30.982Z,99081.53
2023-07-25T05:47:33.844Z,99074.22
2023-07-25T05:50:43.034Z,99075.84
2023-07-25T05:53:52.652Z,99094.31
2023-07-25T05:57:13.572Z,99106.38
2023-07-25T06:00:17.060Z,99118.91
2023-07-25T06:03:19.529Z,99114.59
2023-07-25T06:06:24.689Z,99121.59
2023-07-25T06:09:27.073Z,99133.44
2023-07-25T06:12:40.563Z,99119.50
2023-07-25T06:15:50.374Z,99107.41
2023-07-25T06:19:09.626Z,99105.66
2023-07-25T06:22:20.434Z,99095.97
2023-07-25T06:25:34.988Z,99104.06
2023-07-25T06:28:42.924Z,99095.28
2023-07-25T06:31:46.233Z,99085.50
2023-07-25T06:34:49.101Z,99084.69
2023-07-25T06:37:55.509Z,99079.28
2023-07-25T06:40:58.516Z,99069.19
2023-07-25T06:44:06.297Z,99071.16
2023-07-25T06:47:14.657Z,99063.28
2023-07-25T06:50:17.281Z,99065.03
2023-07-25T06:53:28.606Z,99068.22
2023-07-25T06:56:36.121Z,99057.44
2023-07-25T06:59:39.840Z,99047.00
2023-07-25T07:02:42.534Z,99043.19
2023-07-25T07:05:55.488Z,99038.63
2023-07-25T07:08:58.514Z,99041.09
2023-07-25T07:12:02.743Z,99022.03
2023-07-25T07:15:06.976Z,99027.50
2023-07-25T07:18:11.074Z,99008.84
2023-07-25T07:21:14.385Z,99006.31
2023-07-25T07:24:17.768Z,99002.47
2023-07-25T07:27:21.316Z,99001.03
2023-07-25T07:30:25.513Z,99000.97
2023-07-25T07:33:27.678Z,98997.66
2023-07-25T07:36:29.701Z,98985.88
2023-07-25T07:39:37.635Z,98996.72
2023-07-25T07:42:42.249Z,98988.63
2023-07-25T07:45:44.409Z,98990.03
2023-07-25T07:48:48.052Z,98992.09
2023-07-25T07:52:09.753Z,99001.47
2023-07-25T07:55:16.032Z,98999.19
2023-07-25T07:58:19.736Z,98996.06
2023-07-25T08:01:25.837Z,98988.72
2023-07-25T08:04:31.195Z,98982.44
2023-07-25T08:07:39.258Z,98997.34
2023-07-25T08:10:48.563Z,98999.41
2023-07-25T08:13:51.106Z,98992.47
2023-07-25T08:16:53.258Z,98987.59
2023-07-25T08:19:59.226Z,98998.81
2023-07-25T08:23:09.086Z,98980.25
2023-07-25T08:26:23.782Z,98972.06
2023-07-25T08:29:32.788Z,98976.19
2023-07-25T08:32:35.448Z,98952.91
2023-07-25T08:35:43.694Z,98945.97
2023-07-25T08:38:50.577Z,98948.28
2023-07-25T08:41:58.410Z,98945.22
2023-07-25T08:45:09.744Z,98960.09
2023-07-25T08:48:12.954Z,98945.59
2023-07-25T08:51:29.236Z,98962.13
2023-07-25T08:54:42.997Z,98954.69
2023-07-25T09:01:32.310Z,98977.22
2023-07-25T09:04:37.598Z,98991.41
2023-07-25T09:07:39.753Z,98989.84
2023-07-25T09:10:42.278Z,99010.00
2023-07-25T09:13:47.069Z,99063.25
2023-07-25T09:16:53.286Z,99125.41
2023-07-25T09:19:55.740Z,99257.66
2023-07-25T09:22:59.127Z,99308.41
2023-07-25T09:26:11.550Z,99269.81
2023-07-25T09:29:15.026Z,99245.72
2023-07-25T09:32:22.641Z,99234.50
2023-07-25T09:35:25.176Z,99229.22
2023-07-25T09:38:29.484Z,99226.16
2023-07-25T09:41:32.490Z,99210.44
2023-07-25T09:44:34.972Z,99199.22
2023-07-25T09:47:37.856Z,99194.28
2023-07-25T09:50:40.542Z,99204.88
2023-07-25T09:53:43.023Z,99187.34
2023-07-25T09:56:45.347Z,99150.41
2023-07-25T09:59:48.828Z,99109.00
2023-07-25T10:02:51.094Z,99092.25
2023-07-25T10:05:54.380Z,99074.75
2023-07-25T10:08:58.563Z,99097.22
2023-07-25T10:12:00.523Z,99104.97
2023-07-25T10:15:02.602Z,99097.44
2023-07-25T10:18:05.215Z,99123.50
2023-07-25T10:21:09.030Z,99133.47
2023-07-25T10:24:12.822Z,99137.16
2023-07-25T10:27:14.945Z,99144.88
2023-07-25T10:30:24.364Z,99143.03
2023-07-25T10:33:26.513Z,99167.16
2023-07-25T10:36:28.565Z,99168.00
2023-07-25T10:39:30.729Z,99138.59
2023-07-25T10:46:01.194Z,99109.37
2023-07-25T10:49:05.606Z,99099.84
2023-07-25T10:52:07.854Z,99081.09
2023-07-25T10:55:13.824Z,99079.78
2023-07-25T10:58:16.440Z,99069.69
2023-07-25T11:01:35.829Z,99067.31
2023-07-25T11:04:38.225Z,99078.28
2023-07-25T11:07:40.525Z,99098.78
2023-07-25T11:10:43.284Z,99091.91
2023-07-25T11:13:45.424Z,99082.75
2023-07-25T11:16:53.070Z,99063.69
2023-07-25T11:20:01.785Z,99026.03
2023-07-25T11:23:10.450Z,99010.72
2023-07-25T11:26:25.191Z,98988.41
2023-07-25T11:29:27.837Z,98988.91
2023-07-25T11:32:37.078Z,99001.47
2023-07-25T11:35:41.490Z,98979.47
2023-07-25T11:38:49.610Z,98973.19
2023-07-25T11:41:51.962Z,98974.38
2023-07-25T11:44:56.333Z,98972.31
2023-07-25T11:48:21.527Z,98964.91
2023-07-25T11:55:30.676Z,98946.88
2023-07-25T11:58:38.492Z,98971.97
2023-07-25T12:05:33.777Z,98965.59
2023-07-25T12:08:48.148Z,98980.34
2023-07-25T12:11:55.500Z,98999.50
2023-07-25T12:15:13.884Z,99009.06
2023-07-25T12:19:04.879Z,99001.97
2023-07-25T12:22:16.789Z,99002.97
2023-07-25T22:13:31.230Z,99013.44
2023-07-25T22:16:58.396Z,98993.44
2023-07-25T22:20:01.307Z,98984.06
2023-07-25T22:23:15.217Z,98991.22
2023-07-25T22:26:33.109Z,98999.38
2023-07-25T22:29:37.432Z,99005.28
2023-07-25T22:32:44.666Z,99006.28
2023-07-25T22:35:47.492Z,98995.47
2023-07-25T22:38:50.466Z,98973.88
2023-07-25T22:42:02.297Z,98953.47
2023-07-25T22:48:57.144Z,98939.41
2023-07-25T22:52:08.060Z,98936.19
2023-07-25T22:55:12.685Z,98925.97
2023-07-25T22:58:15.099Z,98932.09
2023-07-25T23:01:17.824Z,98920.69
2023-07-25T23:04:22.627Z,98925.19
2023-07-25T23:07:29.319Z,98920.72
2023-07-25T23:10:31.915Z,98930.66
2023-07-25T23:13:35.089Z,98921.50
2023-07-25T23:16:39.899Z,98917.44
2023-07-25T23:19:46.912Z,98920.69
2023-07-25T23:22:59.069Z,98910.28
2023-07-25T23:26:06.981Z,98917.41
2023-07-25T23:29:09.962Z,98911.72
2023-07-25T23:32:26.374Z,98915.59
2023-07-25T23:35:51.626Z,98924.97
2023-07-25T23:39:08.180Z,98925.16
2023-07-25T23:42:11.148Z,98937.16
2023-07-25T23:45:13.677Z,98943.06
2023-07-25T23:48:28.475Z,98952.88
2023-07-25T23:51:31.576Z,98968.19
2023-07-25T23:54:34.282Z,99015.88
2023-07-25T23:58:05.126Z,99043.00
